首页
METAR-TAF:

METAR-TAF

机场 :

Tupelo Regional Airport (C.D. Lemons Field)

图珀洛, 密西西比州, 美国

纬度: 34-16-05N, 经度: 088-46-12W, 海拔: 106米

当前天气观测

该预报发布于1小时和4分钟前的09:53 UTC
风速5节,风向东南
温度 23°C
湿度 73%
气压 1013 hPa
能見度: 16.1公里
天空无云

METAR: KTUP 260953Z AUTO 14005KT 10SM CLR 23/18 A2992 RMK AO2 SLP128 T02280183 $

时间: 05:57 (10:57 UTC)

预报

该预报发布于5小时和29分钟前的05:28 UTC
预报有效从26日的 06点(UTC)到 27日的 06点(UTC)
风速6节,风向东南
能見度: 10公里
散云层高于9000英尺
从 26日的 1100点(UTC)
风速7节,风向东南
能見度: 10公里
少量云层高于2800英尺
散云层高于10000英尺
从 26日的 1700点(UTC)
风速10节,风向南转南东
能見度: 10公里
散云层高于3500英尺
多云层高于7000英尺
附近有阵雨
从 27日的 0100点(UTC)
风速7节,风向东南
能見度: 9.7公里
多云层高于1500英尺
小阵雨, 轻雾

TAF: KTUP 260528Z 2606/2706 13006KT P6SM SCT090 FM261100 14007KT P6SM FEW028 SCT100 FM261700 15010KT P6SM VCSH SCT035 BKN070 FM270100 13007KT 6SM -SHRA BR BKN015

超过4000个机场的气象观测和天气预报(METAR&TAF报告)。

可查询的气象台以黄色和红色小点在地图上表示。

将鼠标移到小点上方,可查看气象台名称。

然后点击查看天气观测和预报。

如需切换地图:点击带黑十字的绿色按钮放大地图;点击带横线的绿色按钮缩小地图;或者点击绿色箭头查看邻近地区的地图。


METAR-TAF: